Vliegveldwaarnemingen Nederland - (AUTO) METAR

Luchtvaartmeteorologische informatie voor operationeel gebruik en vluchtvoorbereiding is beschikbaar op www.luchtvaartmeteo.nl.

ZCZC
SA062325 EHFS     VLISSINGEN AWS   NLD   8 m.
METAR EHFS 062325Z AUTO 24009KT 9999 NCD 09/07 Q1027=

ZCZC
SA062325 EHSG     BSA   NLD   43 m.
METAR EHSG 062325Z AUTO 23013KT //// // NCD 10/08 Q1026 RE//=

ZCZC
SA062355 EHKD     DE KOOY/DE KOOY   NLD   1 m.
METAR EHKD 062355Z AUTO 27004KT 0500 FG NCD 06/06 Q1026 RED=

ZCZC
SA062355 EHFD     F3-FB-1   NLD   50 m.
METAR EHFD 062355Z AUTO ///17KT 9999 NSC 09/06 Q1025=

ZCZC
SA062355 EHAM     AMSTERDAM/SCHIPHOL   NLD   -3 m.
METAR EHAM 062355Z 26003KT 9000 NSC 07/06 Q1027 BECMG 7000=

ZCZC
SA062355 EHVL     VLIELAND   NLD   10 m.
METAR EHVL 062355Z AUTO 26006KT 6000 BR NCD 08/08 Q1026 WHT=

ZCZC
SA062355 EHJR     K13-A   NLD   37 m.
METAR EHJR 062355Z AUTO 32009KT //// // ///////// 10/07 Q1027 RE//
W09/H5=

ZCZC
SA062355 EHLE     LELYSTAD/LELYSTAD   NLD   -3 m.
METAR EHLE 062355Z AUTO 28004KT 5000 BR NCD 08/08 Q1027=

ZCZC
SA062355 EHLW     LEEUWARDEN/LEEUWARDEN   NLD   1 m.
METAR EHLW 062355Z AUTO 22004KT 0200 FG OVC000 07/06 Q1026 RED=

ZCZC
SA062355 EHDL     ARNHEM/DEELEN   NLD   48 m.
METAR EHDL 062355Z AUTO 26002KT 9999 OVC065 11/09 Q1027 BLU=

ZCZC
SA062355 EHGG     GRONINGEN/EELDE   NLD   5 m.
METAR EHGG 062355Z AUTO 26004KT 2200 BR SCT003 08/08 Q1026=

ZCZC
SA062355 EHSC     LICHTEILAND GOEREE   NLD   22 m.
METAR EHSC 062355Z AUTO 24008KT 9999 ///////// 09/07 Q1027 W08/H5=

ZCZC
SA062355 EHSA     EURO PLATFORM   NLD   19 m.
METAR EHSA 062355Z AUTO 22012KT 9999 ///////// 09/08 Q1027 W06/H6=

ZCZC
SA062355 EHWO     WOENSDRECHT/WOENSDRECHT   NLD   19 m.
METAR EHWO 062355Z AUTO 24002KT 9999 NCD 07/07 Q1027 BLU=

ZCZC
SA062355 EHRD     ROTTERDAM/THE HAGUE AIRPORT   NLD   -5 m.
METAR EHRD 062355Z AUTO 23005KT 9999 NCD 07/06 Q1027 NOSIG=

ZCZC
SA062355 EHGR     GILZE-RIJEN/GILZE-RIJEN   NLD   14 m.
METAR EHGR 062355Z AUTO 30003KT 260V350 9000 BR NCD 09/08 Q1027 BLU=

ZCZC
SA062355 EHEH     EINDHOVEN/EINDHOVEN   NLD   22 m.
METAR EHEH 062355Z AUTO 29004KT 240V320 9999 FEW069 12/09 Q1027 BLU=

ZCZC
SA062355 EHVK     VOLKEL/VOLKEL   NLD   21 m.
METAR EHVK 062355Z AUTO 27004KT 240V300 9999 OVC067 13/09 Q1027 BLU=

ZCZC
SA062355 EHBK     MAASTRICHT/MAASTRICHT-AACHEN   NLD   114 m.
METAR EHBK 062355Z AUTO 24004KT 210V290 9999 NSC 13/09 Q1027=

ZCZC
SA062355 EHFZ     F16-A   NLD   43 m.
METAR EHFZ 062355Z AUTO 30017KT 9999 NCD 09/06 Q1026=

ZCZC
SA062355 EHKV     K14-FA-1C   NLD   41 m.
METAR EHKV 062355Z AUTO VRB08KT 9999 NCD 09/07 Q1028=

ZCZC
SA062355 EHMG     L9-FF-1   NLD   44 m.
METAR EHMG 062355Z AUTO 25015KT 9999 NSC 09/08 Q1026=

ZCZC
SA062355 EHMA     AWG-1   NLD   40 m.
METAR EHMA 062355Z AUTO 27008KT 3400 BR NSC 09/09 Q1026=

ZCZC
SA062355 EHDV     D15-FA-1   NLD   42 m.
METAR EHDV 062355Z AUTO 30014KT 9999 NSC 09/05 Q1026=

ZCZC
SA062355 EHAK     A12-CPP   NLD   48 m.
METAR EHAK 062355Z AUTO 27016KT 9999 NCD 08/06 Q1025=

ZCZC
SA062355 EHQE     HOORN-A   NLD   50 m.
METAR EHQE 062355Z AUTO 25013KT 9999 NCD 10/08 Q1026=

ZCZC
SA062355 EHJA     J6-A   NLD   45 m.
METAR EHJA 062355Z AUTO 31012KT 9999 NCD 09/05 Q1026=

ZCZC
SA062355 EHPG     P11-B   NLD   41 m.
METAR EHPG 062355Z AUTO 21008KT 160V260 9999 NCD 09/08 Q1026=

ZCZC
SA062355 EHHW     BUITENGAATS/BG-OHVS2      42 m.
METAR EHHW 062355Z AUTO 30008KT 9999 NCD 09/07 Q1026=

07/04/2020 02.00 uur LT